Time;durP1;ratioP1;P1;durP2;ratioP2;P2;SDS_P1;SDS_P2;PMS_P1;PMS_P2;Temp;Humidity;BMP_temperature;BMP_pressure;BME280_temperature;BME280_humidity;BME280_pressure;Samples;Min_cycle;Max_cycle;Signal;HPM_P1;HPM_P2
2022/08/28 00:00:34;;;;;;;8.15;3.22;;;17.20;99.90;;;;;;4977589;28;20086;-77
2022/08/28 00:03:00;;;;;;;5.75;2.42;;;17.20;99.90;;;;;;4977375;28;20047;-76
2022/08/28 00:05:28;;;;;;;5.45;2.85;;;17.10;99.90;;;;;;4979591;28;20042;-77
2022/08/28 00:07:55;;;;;;;10.02;2.55;;;17.00;99.90;;;;;;4979956;28;20053;-77
2022/08/28 00:10:22;;;;;;;5.55;2.30;;;17.00;99.90;;;;;;4980247;28;20430;-77
2022/08/28 00:12:50;;;;;;;7.57;2.78;;;16.90;99.90;;;;;;4981342;28;20047;-77
2022/08/28 00:15:20;;;;;;;8.52;2.80;;;16.90;99.90;;;;;;4980033;28;20050;-77
2022/08/28 00:17:47;;;;;;;10.77;2.42;;;16.90;99.90;;;;;;4996732;28;20038;-77
2022/08/28 00:20:14;;;;;;;9.88;2.72;;;16.80;99.90;;;;;;4981101;28;20082;-77
2022/08/28 00:22:40;;;;;;;8.60;2.67;;;16.80;99.90;;;;;;4996135;28;20039;-77
2022/08/28 00:25:08;;;;;;;6.15;2.45;;;16.70;99.90;;;;;;4980922;28;20500;-77
2022/08/28 00:27:52;;;;;;;5.15;2.20;;;16.70;99.90;;;;;;4996029;28;20078;-77
2022/08/28 00:30:24;;;;;;;7.13;2.53;;;16.60;99.90;;;;;;4996450;28;20125;-77
2022/08/28 00:32:51;;;;;;;6.80;2.05;;;16.50;99.90;;;;;;4980783;28;20085;-77
2022/08/28 00:35:18;;;;;;;5.30;2.20;;;16.50;99.90;;;;;;4979587;28;20429;-77
2022/08/28 00:37:45;;;;;;;6.90;2.35;;;16.50;99.90;;;;;;4995359;28;20352;-77
2022/08/28 00:40:14;;;;;;;5.97;2.30;;;16.40;99.90;;;;;;4995923;28;20053;-77
2022/08/28 00:42:41;;;;;;;8.25;2.63;;;16.50;99.90;;;;;;4980839;28;20035;-77
2022/08/28 00:45:07;;;;;;;8.82;2.35;;;16.40;99.90;;;;;;4979808;28;20046;-77
2022/08/28 00:47:34;;;;;;;6.78;2.33;;;16.40;99.90;;;;;;4980473;28;20496;-77
2022/08/28 00:50:01;;;;;;;7.70;2.38;;;16.40;99.90;;;;;;4996039;28;20047;-77
2022/08/28 00:52:27;;;;;;;8.90;2.30;;;16.20;99.90;;;;;;4979717;28;20038;-77
2022/08/28 00:54:56;;;;;;;5.85;2.30;;;16.20;99.90;;;;;;4995488;28;20081;-76
2022/08/28 00:57:27;;;;;;;6.57;1.95;;;16.20;99.90;;;;;;4980646;28;20049;-76
2022/08/28 00:59:53;;;;;;;9.30;2.72;;;16.10;99.90;;;;;;4979380;28;20054;-76
2022/08/28 01:02:18;;;;;;;8.57;2.55;;;16.00;99.90;;;;;;4980480;28;20069;-77
2022/08/28 01:04:46;;;;;;;7.20;2.45;;;16.00;99.90;;;;;;4980380;28;20039;-77
2022/08/28 01:07:13;;;;;;;7.15;2.00;;;16.10;99.90;;;;;;4995614;28;20106;-77
2022/08/28 01:09:43;;;;;;;5.03;1.98;;;16.10;99.90;;;;;;4980043;28;20118;-76
2022/08/28 01:12:20;;;;;;;6.50;2.17;;;16.10;99.90;;;;;;4962902;28;20039;-77
2022/08/28 01:14:49;;;;;;;6.88;2.28;;;16.00;99.90;;;;;;4980309;28;20046;-77
2022/08/28 01:17:16;;;;;;;6.78;2.40;;;16.00;99.90;;;;;;4978686;28;20046;-77
2022/08/28 01:19:54;;;;;;;7.10;2.15;;;16.00;99.90;;;;;;4995142;28;20089;-77
2022/08/28 01:22:37;;;;;;;7.50;2.20;;;16.00;99.90;;;;;;4995618;28;20059;-77
2022/08/28 01:25:07;;;;;;;5.70;2.15;;;16.00;99.90;;;;;;4979924;28;20038;-77
2022/08/28 01:27:33;;;;;;;9.00;2.15;;;15.90;99.90;;;;;;4979791;28;20038;-78
2022/08/28 01:29:59;;;;;;;5.13;2.10;;;15.90;99.90;;;;;;4979616;28;20450;-77
2022/08/28 01:32:36;;;;;;;5.50;2.00;;;15.90;99.90;;;;;;4980090;28;20070;-77
2022/08/28 01:35:05;;;;;;;6.75;1.90;;;15.90;99.90;;;;;;4994669;28;20058;-77
2022/08/28 01:37:30;;;;;;;9.75;2.35;;;15.90;99.90;;;;;;4978254;28;20043;-78
2022/08/28 01:39:56;;;;;;;6.38;2.20;;;15.90;99.90;;;;;;4979870;28;20034;-77
2022/08/28 01:42:22;;;;;;;8.07;2.30;;;15.90;99.90;;;;;;4979666;28;20125;-77
2022/08/28 01:44:49;;;;;;;8.20;2.00;;;15.90;99.90;;;;;;4994823;28;20108;-77
2022/08/28 01:47:15;;;;;;;6.47;2.10;;;16.00;99.90;;;;;;4994653;28;20054;-77
2022/08/28 01:49:41;;;;;;;8.27;1.92;;;15.90;99.90;;;;;;4978528;28;20082;-76
2022/08/28 01:52:08;;;;;;;8.57;2.20;;;15.90;99.90;;;;;;4994708;28;20046;-77
2022/08/28 01:54:33;;;;;;;6.60;2.03;;;15.90;99.90;;;;;;4978564;28;20050;-77
2022/08/28 01:56:59;;;;;;;7.80;2.35;;;15.80;99.90;;;;;;4978394;28;20035;-77
2022/08/28 01:59:25;;;;;;;5.72;2.25;;;15.80;99.90;;;;;;4994475;28;20489;-77
2022/08/28 02:01:50;;;;;;;6.50;2.33;;;15.90;99.90;;;;;;4979518;28;20070;-77
2022/08/28 02:04:16;;;;;;;5.20;1.92;;;15.90;99.90;;;;;;4979341;28;20452;-76
2022/08/28 02:06:42;;;;;;;7.68;2.35;;;15.80;99.90;;;;;;4979434;28;20051;-77
2022/08/28 02:09:08;;;;;;;5.75;2.03;;;15.80;99.90;;;;;;4978572;28;20050;-77
2022/08/28 02:11:34;;;;;;;5.60;1.75;;;15.80;99.90;;;;;;4994083;28;20418;-77
2022/08/28 02:14:00;;;;;;;6.25;2.00;;;15.80;99.90;;;;;;4977859;28;20092;-77
2022/08/28 02:16:26;;;;;;;6.28;1.92;;;15.80;99.90;;;;;;4979157;28;20073;-77
2022/08/28 02:18:52;;;;;;;6.78;1.85;;;15.70;99.90;;;;;;4978963;28;20534;-77
2022/08/28 02:21:19;;;;;;;6.47;2.10;;;15.70;99.90;;;;;;4979076;28;20457;-77
2022/08/28 02:23:45;;;;;;;5.90;2.10;;;15.70;99.90;;;;;;4978790;28;20077;-77
2022/08/28 02:26:12;;;;;;;6.10;2.10;;;15.70;99.90;;;;;;4993938;28;20042;-77
2022/08/28 02:28:39;;;;;;;6.28;2.00;;;15.70;99.90;;;;;;4978571;28;20125;-77
2022/08/28 02:31:09;;;;;;;6.53;2.25;;;15.60;99.90;;;;;;4977624;28;20050;-77
2022/08/28 02:33:40;;;;;;;7.10;2.17;;;15.60;99.90;;;;;;4978597;28;20125;-77
2022/08/28 02:36:08;;;;;;;5.93;2.08;;;15.60;99.90;;;;;;4978799;28;20081;-77
2022/08/28 02:38:35;;;;;;;4.90;1.90;;;15.60;99.90;;;;;;4993471;28;20105;-77
2022/08/28 02:41:00;;;;;;;8.98;2.25;;;15.50;99.90;;;;;;4978460;28;20039;-77
2022/08/28 02:43:26;;;;;;;5.28;1.83;;;15.50;99.90;;;;;;4978578;28;20049;-77
2022/08/28 02:45:52;;;;;;;4.75;1.73;;;15.50;99.90;;;;;;4993631;28;20342;-77
2022/08/28 02:48:17;;;;;;;5.40;1.77;;;15.50;99.90;;;;;;4978360;28;20058;-77
2022/08/28 02:50:45;;;;;;;5.70;1.80;;;15.50;99.90;;;;;;4977845;28;20129;-77
2022/08/28 02:53:11;;;;;;;4.63;1.85;;;15.50;99.90;;;;;;4978071;28;20045;-77
2022/08/28 02:55:37;;;;;;;6.82;1.80;;;15.50;99.90;;;;;;4978377;28;20045;-77
2022/08/28 02:58:03;;;;;;;7.70;2.20;;;15.50;99.90;;;;;;4978404;28;20121;-76
2022/08/28 03:00:28;;;;;;;7.35;1.95;;;15.40;99.90;;;;;;4977043;28;20050;-77
2022/08/28 03:02:54;;;;;;;4.53;1.90;;;15.30;99.90;;;;;;4977095;28;20051;-76
2022/08/28 03:05:25;;;;;;;8.95;2.38;;;15.30;99.90;;;;;;4977273;28;20333;-77
2022/08/28 03:07:52;;;;;;;4.80;1.85;;;15.30;99.90;;;;;;4977559;28;20120;-77
2022/08/28 03:10:18;;;;;;;8.30;2.67;;;15.40;99.90;;;;;;4993049;28;20125;-77
2022/08/28 03:12:44;;;;;;;7.25;2.10;;;15.40;99.90;;;;;;4978145;28;20043;-77
2022/08/28 03:15:11;;;;;;;8.10;2.40;;;15.50;99.90;;;;;;4993095;28;20046;-77
2022/08/28 03:17:37;;;;;;;9.10;2.40;;;15.40;99.90;;;;;;4993189;28;20322;-77
2022/08/28 03:20:07;;;;;;;6.00;1.83;;;15.30;99.90;;;;;;4978109;28;20046;-77
2022/08/28 03:25:18;;;;;;;7.60;2.35;;;15.20;99.90;;;;;;4977813;28;20434;-76
2022/08/28 03:27:43;;;;;;;8.93;2.13;;;15.20;99.90;;;;;;4976523;28;20049;-77
2022/08/28 03:30:10;;;;;;;4.70;2.00;;;15.20;99.90;;;;;;4978033;28;20117;-76
2022/08/28 03:32:36;;;;;;;3.55;1.80;;;15.20;99.90;;;;;;4977618;28;20049;-77
2022/08/28 03:35:02;;;;;;;7.07;2.00;;;15.20;99.90;;;;;;4977522;28;20055;-77
2022/08/28 03:37:28;;;;;;;7.88;2.00;;;15.10;99.90;;;;;;4976631;28;20097;-77
2022/08/28 03:39:54;;;;;;;5.05;1.80;;;15.10;99.90;;;;;;4976449;28;20390;-77
2022/08/28 03:42:20;;;;;;;5.55;1.67;;;15.10;99.90;;;;;;4976941;28;20054;-77
2022/08/28 03:44:47;;;;;;;7.90;2.00;;;15.10;99.90;;;;;;4976457;28;20054;-77
2022/08/28 03:47:13;;;;;;;8.35;1.70;;;15.10;99.90;;;;;;4977510;28;20046;-78
2022/08/28 03:49:39;;;;;;;11.85;2.05;;;15.00;99.90;;;;;;4977561;28;20055;-77
2022/08/28 03:52:05;;;;;;;4.95;1.67;;;15.10;99.90;;;;;;4992746;28;20398;-77
2022/08/28 03:54:31;;;;;;;5.32;1.60;;;15.00;99.90;;;;;;4977674;28;20472;-77
2022/08/28 03:56:57;;;;;;;5.75;1.55;;;14.90;99.90;;;;;;4977548;28;20066;-77
2022/08/28 03:59:23;;;;;;;7.10;2.17;;;14.90;99.90;;;;;;4976714;28;20437;-77
2022/08/28 04:01:48;;;;;;;5.28;1.67;;;14.90;99.90;;;;;;4977591;28;20489;-77
2022/08/28 04:04:14;;;;;;;7.53;2.05;;;14.90;99.90;;;;;;4977616;28;20073;-77
2022/08/28 04:06:40;;;;;;;8.77;1.80;;;14.90;99.90;;;;;;4992559;28;20074;-77
2022/08/28 04:09:06;;;;;;;6.30;1.80;;;14.90;99.90;;;;;;4992453;28;20409;-76
2022/08/28 04:11:41;;;;;;;2.88;1.40;;;14.80;99.90;;;;;;4992450;28;20038;-77
2022/08/28 04:14:10;;;;;;;7.60;2.00;;;14.80;99.90;;;;;;4977428;28;20043;-77
2022/08/28 04:16:37;;;;;;;6.65;1.65;;;14.90;99.90;;;;;;4977477;28;20042;-77
2022/08/28 04:19:03;;;;;;;4.53;2.03;;;14.90;99.90;;;;;;4977398;28;20344;-76
2022/08/28 04:21:29;;;;;;;7.18;1.73;;;14.90;99.90;;;;;;4977527;28;20186;-76
2022/08/28 04:23:54;;;;;;;6.28;1.80;;;14.80;99.90;;;;;;4976133;28;20429;-77
2022/08/28 04:26:23;;;;;;;8.05;1.75;;;14.80;99.90;;;;;;4977346;28;20041;-77
2022/08/28 04:28:50;;;;;;;5.28;1.67;;;14.80;99.90;;;;;;4977058;28;20337;-76
2022/08/28 04:31:16;;;;;;;7.25;1.60;;;14.80;99.90;;;;;;4977281;28;20498;-77
2022/08/28 04:33:42;;;;;;;9.63;1.80;;;14.80;99.90;;;;;;4977161;28;20412;-77
2022/08/28 04:36:14;;;;;;;5.10;1.70;;;14.90;99.90;;;;;;4977045;28;20086;-77
2022/08/28 04:38:41;;;;;;;7.10;2.05;;;14.90;99.90;;;;;;4976873;28;20089;-77
2022/08/28 04:41:09;;;;;;;6.43;1.75;;;14.90;99.90;;;;;;4977089;28;20102;-77
2022/08/28 04:43:35;;;;;;;8.88;2.00;;;14.90;99.90;;;;;;4976636;28;20055;-80
2022/08/28 04:46:11;;;;;;;5.63;1.60;;;15.00;99.90;;;;;;4976182;28;20332;-77
2022/08/28 04:48:38;;;;;;;4.25;1.55;;;15.00;99.90;;;;;;4977065;28;20098;-77
2022/08/28 04:51:05;;;;;;;4.63;1.55;;;15.00;99.90;;;;;;4978319;28;20432;-77
2022/08/28 04:53:31;;;;;;;6.30;1.70;;;14.90;99.90;;;;;;4995715;28;20077;-76
2022/08/28 04:55:59;;;;;;;9.85;2.15;;;14.90;99.90;;;;;;4980465;28;20070;-77
2022/08/28 04:58:26;;;;;;;4.18;1.50;;;14.90;99.90;;;;;;4995465;28;20426;-76
2022/08/28 05:00:53;;;;;;;8.13;1.60;;;14.90;99.90;;;;;;4980670;28;20038;-77
2022/08/28 05:03:19;;;;;;;9.23;1.70;;;15.00;99.90;;;;;;4995682;28;20050;-76
2022/08/28 05:05:48;;;;;;;6.97;1.58;;;15.10;99.90;;;;;;4979335;28;20042;-76
2022/08/28 05:08:16;;;;;;;4.70;1.67;;;15.10;99.90;;;;;;4979813;28;20117;-76
2022/08/28 05:10:42;;;;;;;5.70;1.58;;;15.00;99.90;;;;;;4980052;28;20410;-77
2022/08/28 05:13:10;;;;;;;3.75;1.60;;;15.00;99.90;;;;;;4979101;28;20093;-77
2022/08/28 05:15:44;;;;;;;8.25;1.77;;;15.00;99.90;;;;;;4980195;28;20039;-77
2022/08/28 05:18:13;;;;;;;5.28;1.50;;;15.00;99.90;;;;;;4980357;28;20047;-77
2022/08/28 05:20:42;;;;;;;6.20;1.60;;;15.10;99.90;;;;;;4995139;28;20353;-77
2022/08/28 05:23:08;;;;;;;4.20;1.50;;;15.00;99.90;;;;;;4995512;28;20207;-77
2022/08/28 05:25:43;;;;;;;3.72;1.50;;;15.10;99.90;;;;;;4978733;28;20065;-77
2022/08/28 05:28:10;;;;;;;3.83;1.38;;;15.20;99.90;;;;;;4979991;28;20057;-76
2022/08/28 05:30:36;;;;;;;3.50;1.30;;;15.00;99.90;;;;;;4980036;28;20105;-76
2022/08/28 05:33:07;;;;;;;5.63;1.38;;;15.10;99.90;;;;;;4979499;28;20492;-77
2022/08/28 05:35:34;;;;;;;7.20;1.40;;;15.20;99.90;;;;;;4980097;28;20062;-77
2022/08/28 05:37:59;;;;;;;6.25;1.73;;;15.20;99.90;;;;;;4978386;28;20075;-77
2022/08/28 05:40:25;;;;;;;5.38;1.58;;;15.30;99.90;;;;;;4979624;28;20038;-77
2022/08/28 05:42:51;;;;;;;4.82;1.60;;;15.30;99.90;;;;;;4994945;28;20050;-77
2022/08/28 05:45:17;;;;;;;5.38;1.40;;;15.20;99.90;;;;;;4978742;28;20046;-77
2022/08/28 05:47:43;;;;;;;6.65;1.80;;;15.30;99.90;;;;;;4994686;28;20330;-77
2022/08/28 05:50:12;;;;;;;6.07;1.42;;;15.50;99.90;;;;;;4979575;28;20341;-76
2022/08/28 05:52:38;;;;;;;7.50;1.50;;;15.70;99.90;;;;;;4994432;28;20114;-77
2022/08/28 05:55:05;;;;;;;6.38;1.70;;;15.80;99.90;;;;;;4979557;28;20047;-76
2022/08/28 05:57:31;;;;;;;5.63;1.20;;;16.00;99.90;;;;;;4994848;28;20169;-76
2022/08/28 05:59:57;;;;;;;6.22;1.40;;;16.20;99.90;;;;;;4979353;28;20097;-76
2022/08/28 06:02:22;;;;;;;6.70;1.52;;;16.30;99.90;;;;;;4978796;28;20078;-76
2022/08/28 06:04:49;;;;;;;16.60;1.83;;;16.50;99.90;;;;;;4979100;28;20516;-76
2022/08/28 06:07:14;;;;;;;9.27;1.50;;;16.60;99.90;;;;;;4979016;28;20133;-77
2022/08/28 06:09:41;;;;;;;12.63;1.48;;;16.90;99.90;;;;;;4977584;28;20126;-77
2022/08/28 06:12:07;;;;;;;8.63;1.40;;;17.10;99.90;;;;;;4978110;28;20439;-76
2022/08/28 06:14:33;;;;;;;7.28;1.10;;;17.30;99.90;;;;;;4994211;28;20038;-77
2022/08/28 06:17:00;;;;;;;9.35;1.33;;;17.40;99.90;;;;;;4994305;28;20053;-76
2022/08/28 06:19:28;;;;;;;7.18;1.30;;;17.60;99.90;;;;;;4977947;28;20330;-77
2022/08/28 06:21:56;;;;;;;10.77;1.60;;;17.70;99.90;;;;;;4994342;28;20127;-76
2022/08/28 06:24:23;;;;;;;7.60;1.40;;;17.60;99.90;;;;;;4994028;28;20098;-77
2022/08/28 06:26:49;;;;;;;7.97;1.50;;;17.80;99.90;;;;;;4977940;28;20361;-77
2022/08/28 06:29:19;;;;;;;7.18;2.03;;;17.90;99.90;;;;;;4977884;28;20043;-76
2022/08/28 06:31:45;;;;;;;9.27;1.52;;;17.90;99.90;;;;;;4978730;28;20077;-77
2022/08/28 06:34:12;;;;;;;5.25;1.40;;;18.10;99.90;;;;;;4978410;28;20090;-77
2022/08/28 06:36:40;;;;;;;5.63;1.17;;;18.10;99.90;;;;;;4978931;28;20078;-76
2022/08/28 06:39:08;;;;;;;12.38;1.70;;;18.30;99.90;;;;;;4978396;28;20349;-76
2022/08/28 06:41:39;;;;;;;7.65;1.25;;;18.40;99.90;;;;;;4977699;28;20389;-76
2022/08/28 06:44:05;;;;;;;7.10;1.48;;;18.40;99.90;;;;;;4978386;28;20042;-76
2022/08/28 06:46:33;;;;;;;9.73;1.40;;;18.50;99.90;;;;;;4993792;28;20042;-76
2022/08/28 06:49:02;;;;;;;13.35;1.75;;;18.60;99.90;;;;;;4978188;28;20656;-77
2022/08/28 06:51:28;;;;;;;10.00;2.00;;;18.60;99.90;;;;;;4978416;28;20345;-77
2022/08/28 06:53:54;;;;;;;4.72;1.20;;;18.70;99.90;;;;;;4978488;28;20038;-76
2022/08/28 06:56:20;;;;;;;5.32;1.15;;;18.70;99.90;;;;;;4978304;28;20039;-77
2022/08/28 06:58:48;;;;;;;6.40;1.38;;;18.80;99.90;;;;;;4978157;28;20042;-77
2022/08/28 07:01:24;;;;;;;8.48;1.30;;;18.80;99.90;;;;;;4978219;28;20046;-77
2022/08/28 07:03:52;;;;;;;9.93;1.75;;;18.90;99.90;;;;;;4977271;28;20186;-77
2022/08/28 07:06:20;;;;;;;5.80;1.10;;;18.80;99.90;;;;;;4977210;28;20082;-76
2022/08/28 07:08:46;;;;;;;7.70;1.20;;;18.90;99.90;;;;;;4977632;28;20053;-77
2022/08/28 07:11:17;;;;;;;6.32;1.10;;;19.10;99.90;;;;;;4993132;28;20039;-76
2022/08/28 07:13:43;;;;;;;9.57;1.83;;;19.10;99.90;;;;;;4992507;28;20097;-78
2022/08/28 07:16:10;;;;;;;7.55;1.50;;;19.30;99.90;;;;;;4992744;28;20081;-77
2022/08/28 07:18:37;;;;;;;7.97;1.70;;;19.30;99.90;;;;;;4977137;28;20042;-76
2022/08/28 07:21:02;;;;;;;8.15;1.30;;;19.50;99.80;;;;;;4993253;28;20394;-76
2022/08/28 07:23:30;;;;;;;7.13;1.35;;;19.50;99.80;;;;;;4977832;28;20085;-76
2022/08/28 07:25:56;;;;;;;9.90;1.40;;;19.40;99.50;;;;;;4977122;28;20117;-76
2022/08/28 07:28:23;;;;;;;6.72;1.38;;;19.50;99.70;;;;;;4977197;28;20481;-77
2022/08/28 07:31:00;;;;;;;6.30;1.30;;;19.60;99.50;;;;;;4977718;28;20322;-77
2022/08/28 07:33:27;;;;;;;6.38;1.20;;;19.70;99.40;;;;;;4992731;28;20055;-77
2022/08/28 07:35:53;;;;;;;8.25;1.60;;;19.50;99.50;;;;;;4977709;28;20050;-77
2022/08/28 07:38:20;;;;;;;7.03;1.55;;;19.40;99.50;;;;;;4977494;28;20043;-77
2022/08/28 07:40:45;;;;;;;6.55;1.35;;;19.30;99.40;;;;;;4977516;28;20043;-77
2022/08/28 07:45:58;;;;;;;9.75;1.35;;;19.50;99.20;;;;;;4976810;28;20334;-76
2022/08/28 07:48:24;;;;;;;7.85;1.60;;;19.70;99.20;;;;;;4977570;28;20166;-76
2022/08/28 07:50:49;;;;;;;4.78;1.10;;;19.70;98.40;;;;;;4976551;28;20038;-76
2022/08/28 07:53:15;;;;;;;6.47;1.27;;;19.40;97.90;;;;;;4977459;28;20038;-77
2022/08/28 07:55:41;;;;;;;6.68;1.48;;;19.50;98.30;;;;;;4977471;28;20042;-76
2022/08/28 07:58:06;;;;;;;5.82;1.30;;;19.50;98.40;;;;;;4977566;28;20047;-76
2022/08/28 08:00:32;;;;;;;5.88;1.40;;;19.60;98.40;;;;;;4977489;28;20043;-76
2022/08/28 08:02:57;;;;;;;7.20;1.38;;;19.70;98.60;;;;;;4992616;28;20318;-76
2022/08/28 08:05:24;;;;;;;5.63;1.60;;;19.80;98.40;;;;;;4976526;28;20311;-76
2022/08/28 08:07:51;;;;;;;6.72;1.60;;;19.90;98.20;;;;;;4976809;28;20388;-73
2022/08/28 08:10:17;;;;;;;6.32;1.30;;;20.00;98.40;;;;;;4982048;28;20074;-72
2022/08/28 08:12:43;;;;;;;11.65;1.60;;;19.90;98.50;;;;;;4979337;28;20038;-73
2022/08/28 08:15:10;;;;;;;10.18;1.80;;;19.90;98.50;;;;;;4977250;28;20045;-74
2022/08/28 08:17:36;;;;;;;4.18;0.98;;;19.70;98.60;;;;;;4992532;28;20451;-73
2022/08/28 08:20:03;;;;;;;9.98;1.63;;;19.70;98.90;;;;;;4977460;28;20125;-73
2022/08/28 08:22:28;;;;;;;7.15;1.95;;;19.70;98.90;;;;;;4977323;28;20369;-73
2022/08/28 08:24:54;;;;;;;6.75;1.33;;;20.00;99.10;;;;;;4977098;28;20097;-73
2022/08/28 08:27:20;;;;;;;8.65;1.50;;;20.20;99.00;;;;;;4980502;28;20074;-73
2022/08/28 08:29:47;;;;;;;7.28;1.48;;;20.60;98.90;;;;;;4981193;28;20038;-72
2022/08/28 08:32:14;;;;;;;6.95;1.35;;;20.90;98.50;;;;;;4980802;28;20437;-72
2022/08/28 08:34:42;;;;;;;8.77;1.45;;;20.90;98.10;;;;;;4980755;28;20046;-73
2022/08/28 08:37:07;;;;;;;7.55;1.92;;;20.90;98.20;;;;;;4980005;28;20130;-73
2022/08/28 08:39:34;;;;;;;10.50;1.70;;;21.00;98.40;;;;;;4978684;28;20170;-74
2022/08/28 08:42:02;;;;;;;9.90;1.60;;;20.70;98.10;;;;;;4979153;28;20046;-73
2022/08/28 08:44:46;;;;;;;10.13;1.80;;;20.70;98.50;;;;;;4980864;28;20052;-73
2022/08/28 08:47:30;;;;;;;7.80;1.60;;;20.70;98.60;;;;;;4980744;28;20128;-74
2022/08/28 08:50:13;;;;;;;7.20;1.30;;;20.70;98.30;;;;;;4980531;28;20043;-72
2022/08/28 08:52:44;;;;;;;7.68;1.40;;;20.70;98.20;;;;;;4980840;28;20093;-83
2022/08/28 08:55:26;;;;;;;6.75;1.40;;;20.40;98.50;;;;;;4979998;28;20429;-93
2022/08/28 08:57:58;;;;;;;11.52;2.20;;;20.00;98.60;;;;;;4980281;28;20035;-87
2022/08/28 09:00:24;;;;;;;9.98;1.40;;;20.10;98.80;;;;;;4979650;28;20345;-71
2022/08/28 09:03:15;;;;;;;6.63;1.58;;;20.00;98.70;;;;;;4971533;28;20053;-69
2022/08/28 09:05:47;;;;;;;6.50;1.42;;;20.10;98.80;;;;;;4995463;28;20125;-71
2022/08/28 09:08:24;;;;;;;6.43;1.95;;;20.60;98.40;;;;;;4979303;28;20434;-71
2022/08/28 09:11:00;;;;;;;7.85;1.55;;;20.80;97.80;;;;;;4980273;28;20043;-80
2022/08/28 09:13:46;;;;;;;;;;;20.80;98.10;;;;;;4980571;28;20043;-96
2022/08/28 09:16:25;;;;;;;5.50;1.30;;;20.70;98.30;;;;;;4975137;28;20309;-72
2022/08/28 09:18:54;;;;;;;6.57;1.63;;;20.90;97.70;;;;;;4960642;28;20047;-72
2022/08/28 09:21:25;;;;;;;6.80;1.50;;;20.90;97.50;;;;;;4970563;28;20054;-71
2022/08/28 09:23:52;;;;;;;6.13;1.58;;;21.20;97.70;;;;;;4977922;28;20046;-70
2022/08/28 09:26:23;;;;;;;7.18;1.23;;;21.70;97.60;;;;;;4979822;28;20058;-71
2022/08/28 09:29:00;;;;;;;5.95;1.65;;;22.00;97.00;;;;;;4979602;28;20062;-72
2022/08/28 09:31:38;;;;;;;6.53;1.45;;;22.10;96.70;;;;;;4970080;28;20054;-72
2022/08/28 09:34:27;;;;;;;6.25;1.38;;;22.00;96.70;;;;;;4960034;28;20055;-72
2022/08/28 09:36:54;;;;;;;6.43;1.40;;;22.30;96.80;;;;;;4959641;28;20091;-71
2022/08/28 09:39:23;;;;;;;7.70;1.60;;;22.30;96.70;;;;;;4972399;28;20050;-70
2022/08/28 09:44:53;;;;;;;5.25;1.63;;;22.30;96.80;;;;;;4976387;28;20062;-71
2022/08/28 09:47:43;;;;;;;6.47;1.75;;;22.00;96.40;;;;;;4979368;28;20101;-71
2022/08/28 09:50:26;;;;;;;6.50;1.80;;;21.60;96.70;;;;;;4979114;28;20135;-70
2022/08/28 09:52:54;;;;;;;7.22;1.67;;;21.70;96.70;;;;;;4978286;28;20042;-80
2022/08/28 09:55:24;;;;;;;20.90;2.30;;;22.00;96.90;;;;;;4978194;28;20046;-80
2022/08/28 09:57:51;;;;;;;24.35;2.75;;;22.00;96.70;;;;;;4994423;28;20049;-80
2022/08/28 10:00:17;;;;;;;15.10;2.63;;;21.80;96.90;;;;;;4978184;28;20042;-80
2022/08/28 10:03:02;;;;;;;21.55;2.38;;;21.60;97.10;;;;;;4962075;28;20050;-80
2022/08/28 10:05:37;;;;;;;17.70;2.50;;;21.60;97.10;;;;;;4994402;28;20050;-81
2022/08/28 10:08:22;;;;;;;7.70;1.50;;;21.70;97.00;;;;;;4978091;28;20445;-71
2022/08/28 10:10:57;;;;;;;4.97;1.42;;;21.90;96.80;;;;;;4994444;28;20074;-72
2022/08/28 10:13:30;;;;;;;7.50;1.60;;;22.40;96.90;;;;;;4979266;28;20046;-72
2022/08/28 10:16:27;;;;;;;6.07;1.50;;;23.00;96.90;;;;;;4979343;28;20045;-72
2022/08/28 10:18:59;;;;;;;;;;;23.30;96.80;;;;;;4978507;28;20085;-71
2022/08/28 10:21:42;;;;;;;9.90;1.70;;;22.90;96.70;;;;;;4993349;28;19922;-73
2022/08/28 10:24:16;;;;;;;6.75;1.63;;;22.70;96.60;;;;;;4974509;28;20050;-71
2022/08/28 10:27:08;;;;;;;7.20;1.73;;;22.60;96.60;;;;;;4971856;28;20389;-69
2022/08/28 10:29:52;;;;;;;6.97;1.55;;;22.70;96.70;;;;;;4978011;28;20047;-69
2022/08/28 10:32:32;;;;;;;8.93;1.67;;;22.50;96.80;;;;;;4978656;28;20050;-68
2022/08/28 10:35:13;;;;;;;5.55;1.60;;;22.60;96.90;;;;;;4978412;28;20121;-71
2022/08/28 10:37:40;;;;;;;9.35;2.17;;;23.20;97.00;;;;;;4978441;28;20303;-83
2022/08/28 10:40:21;;;;;;;8.35;2.45;;;23.60;96.70;;;;;;4976706;28;20042;-69
2022/08/28 10:43:01;;;;;;;7.80;1.42;;;23.00;96.40;;;;;;4965663;28;20449;-69
2022/08/28 10:45:30;;;;;;;6.20;1.17;;;22.70;95.80;;;;;;4972991;28;20054;-71
2022/08/28 10:48:07;;;;;;;3.85;1.40;;;22.60;96.00;;;;;;4978187;28;20042;-69
2022/08/28 10:51:04;;;;;;;7.53;1.70;;;23.10;96.10;;;;;;4977190;28;20429;-68
2022/08/28 10:53:48;;;;;;;;;;;23.60;96.10;;;;;;4978552;28;20450;-71
2022/08/28 10:56:32;;;;;;;7.45;1.65;;;23.30;96.00;;;;;;4993390;28;19919;-71
2022/08/28 10:58:58;;;;;;;5.90;1.83;;;23.40;95.90;;;;;;4976874;28;20046;-72
2022/08/28 11:01:35;;;;;;;5.43;1.20;;;23.10;96.10;;;;;;4977976;28;20057;-71
2022/08/28 11:04:08;;;;;;;6.68;1.25;;;23.50;96.10;;;;;;4978126;28;20042;-73
2022/08/28 11:06:40;;;;;;;6.55;1.50;;;23.20;96.20;;;;;;4977828;28;20493;-74
2022/08/28 11:09:25;;;;;;;7.22;1.50;;;23.10;95.90;;;;;;4977304;28;20449;-72
2022/08/28 11:12:05;;;;;;;5.07;1.60;;;22.80;96.30;;;;;;4977780;28;20046;-72
2022/08/28 11:14:43;;;;;;;5.75;1.38;;;23.10;96.30;;;;;;4976821;28;20042;-71
2022/08/28 11:17:31;;;;;;;13.02;1.50;;;22.80;96.00;;;;;;4975635;28;20418;-73
2022/08/28 11:20:23;;;;;;;7.20;1.48;;;22.90;96.00;;;;;;4976634;28;20449;-73
2022/08/28 11:22:59;;;;;;;6.15;1.50;;;23.20;96.30;;;;;;4977788;28;20041;-73
2022/08/28 11:25:42;;;;;;;5.97;1.73;;;23.70;96.10;;;;;;4977925;28;20074;-81
2022/08/28 11:28:16;;;;;;;10.70;1.70;;;24.00;95.90;;;;;;4976416;28;20046;-88
2022/08/28 11:30:45;;;;;;;7.32;1.33;;;23.70;96.10;;;;;;4975356;28;20070;-81
2022/08/28 11:33:51;;;;;;;6.60;1.63;;;23.40;95.80;;;;;;4977462;28;20039;-81
2022/08/28 11:36:22;;;;;;;4.68;1.50;;;23.60;95.60;;;;;;4961658;28;20074;-80
2022/08/28 11:38:51;;;;;;;7.85;1.70;;;23.90;95.70;;;;;;4982429;28;20082;-81
2022/08/28 11:41:23;;;;;;;5.70;1.40;;;24.00;95.70;;;;;;4957118;28;20046;-81
2022/08/28 11:44:10;;;;;;;8.15;1.75;;;23.80;95.40;;;;;;4976469;28;20125;-70
2022/08/28 11:46:41;;;;;;;6.75;1.63;;;23.90;95.40;;;;;;4977100;28;20097;-70
2022/08/28 11:49:33;;;;;;;5.05;1.60;;;24.40;95.50;;;;;;4977130;28;20445;-70
2022/08/28 11:52:23;;;;;;;8.52;1.80;;;25.10;95.30;;;;;;4977167;28;20393;-69
2022/08/28 11:55:16;;;;;;;7.78;1.70;;;24.50;95.40;;;;;;4974262;28;20054;-90
2022/08/28 11:58:32;;;;;;;7.30;1.48;;;24.80;95.30;;;;;;4957220;28;20438;-70
2022/08/28 12:01:08;;;;;;;6.20;1.73;;;24.80;94.90;;;;;;5015790;28;20508;-71
2022/08/28 12:03:57;;;;;;;3.20;1.23;;;25.20;94.90;;;;;;4963625;28;20043;-71
2022/08/28 12:06:48;;;;;;;4.60;1.80;;;26.10;95.00;;;;;;4962141;28;20051;-70
2022/08/28 12:09:47;;;;;;;5.13;1.50;;;26.30;94.90;;;;;;4976264;28;20047;-70
2022/08/28 12:12:19;;;;;;;4.63;1.45;;;26.20;94.40;;;;;;4962246;28;20050;-73
2022/08/28 12:14:45;;;;;;;2.22;1.20;;;25.80;94.60;;;;;;4978230;28;20334;-70
2022/08/28 12:17:13;;;;;;;5.25;1.50;;;25.20;94.60;;;;;;4961687;28;20051;-72
2022/08/28 12:19:42;;;;;;;6.97;1.48;;;24.90;94.80;;;;;;4961682;28;20097;-70
2022/08/28 12:22:17;;;;;;;3.63;1.42;;;24.50;94.80;;;;;;4961494;28;20083;-71
2022/08/28 12:24:49;;;;;;;7.32;1.65;;;24.30;95.10;;;;;;4961873;28;20083;-71
2022/08/28 12:27:15;;;;;;;4.88;1.48;;;24.10;95.30;;;;;;4961833;28;20043;-71
2022/08/28 12:29:48;;;;;;;6.88;1.35;;;24.10;95.00;;;;;;4961816;28;20077;-71
2022/08/28 12:32:34;;;;;;;5.68;1.35;;;23.90;95.20;;;;;;4977918;28;20094;-71
2022/08/28 12:35:00;;;;;;;5.15;1.67;;;24.10;95.50;;;;;;4980538;28;20090;-74
2022/08/28 12:37:29;;;;;;;6.55;1.63;;;24.00;95.50;;;;;;4995820;28;20047;-72
2022/08/28 12:40:00;;;;;;;6.40;1.23;;;23.80;95.40;;;;;;4980070;28;20082;-72
2022/08/28 12:42:31;;;;;;;8.98;1.65;;;24.00;95.60;;;;;;4980665;28;20125;-72
2022/08/28 12:45:07;;;;;;;5.30;1.23;;;24.30;95.10;;;;;;4980837;28;20050;-70
2022/08/28 12:47:36;;;;;;;5.22;1.75;;;24.40;95.00;;;;;;4964735;28;20442;-71
2022/08/28 12:50:28;;;;;;;3.33;1.13;;;24.90;95.00;;;;;;4961234;28;20047;-71
2022/08/28 12:52:58;;;;;;;2.63;0.90;;;25.10;94.90;;;;;;4960756;28;20055;-73
2022/08/28 12:55:24;;;;;;;5.65;1.50;;;25.00;95.00;;;;;;4960955;28;20048;-73
2022/08/28 12:57:51;;;;;;;4.28;1.15;;;24.80;95.20;;;;;;4962415;28;20111;-73
2022/08/28 13:00:21;;;;;;;5.00;1.27;;;25.00;95.20;;;;;;4975789;28;20059;-73
2022/08/28 13:02:52;;;;;;;4.57;1.00;;;25.10;95.10;;;;;;4961403;28;20035;-72
2022/08/28 13:05:31;;;;;;;3.45;1.10;;;24.90;95.20;;;;;;4975937;28;20051;-72
2022/08/28 13:08:01;;;;;;;5.53;1.10;;;24.50;95.20;;;;;;4983297;28;20461;-72
2022/08/28 13:10:39;;;;;;;5.95;0.90;;;24.30;95.60;;;;;;4958632;28;20051;-73
2022/08/28 13:13:18;;;;;;;4.35;1.17;;;24.00;95.40;;;;;;4960550;28;20039;-72